Terminal Aerodrome Forecast
Issued by NWS

Home | Current Version | Previous Version | Text Only | Print | Product List | Glossary On
Versions: 1 2 3 4 5 6 7 8 9 10 11 12 13 14 15 16 17 18 19 20 21 22 23 24 25 26 27
000
FTUS42 KILM 022326
TAFCRE
TAF
KCRE 022326Z 0300/0324 19011KT P6SM BKN100 OVC250
     FM030500 20013KT P6SM VCSH SCT015 SCT040 BKN080
      TEMPO 0312/0315 P6SM -TSRA BKN015 BKN025CB
     FM031600 21012G18KT P6SM VCTS SCT025 SCT050CB BKN250
     FM032200 23009KT P6SM -RA BKN015 OVC050=

USA.gov is the U.S. government's official web portal to all federal, state and local government web resources and services.